Alpine Forest, California
Current Conditions -  °F | °C
As of 3:15 PM on Thursday 27 Nov 2014 (Local Time) from KTSP Reporting Station
Clear Clear  
Wind Chill: 72°   Ceiling: Unl
Heat Index: 72°   Visibility: 10mi
Dew Point: 18°   Wind: 7mph
Humidity: 13%   Direction: 120°ESE
Pressure: 30.2"   Gusts: NA
Location:  35.1338°N, 118.552°W
Report Text: KTSP 272315Z AUTO 12006KT 10SM CLR 22/M08 A3020 RMK AO2
Loading
Personal Weather Stations






























Interactive Weather Map New forecast layout! Learn more

10-Day Weather Forecast

Advertisements
Track Severe Weather on mobile